Aérodrome :
LOGIN :

S'inscrire | Disclaimer

   EN    FR    IT 

 










Légende :    VFR   VFR Marginal   IFR   IFR Intensif   IFR Très Intensif
Visi : 
Plafond : 
>= 8 km
>= 3000ft
5 à 8 km
1000 à 3000 ft
1500m à 5 km
500 à 1000 ft
800 à 1500m
200 à 500 ft
< 800m
< 200 ft
Symboles :   Orages  Brouillard  Fortes neiges  Fortes précipitations  Vent > 20 kt
SIGMETs :   Divers  Orages  Givrage  Turbulence  Onde Orograph.  Cendres Volcan.






- Altitude de l'aérodrome : 1535 ft
- Code IATA : OUD


GMFO - Ouja Angads

DERNIER METAR :
  • 251200Z 26010KT 220V290 CAVOK 21/M01 Q1024 NOSIG

METARs EXPIRÉS :
  • 251130Z 24012KT CAVOK 21/01 Q1024 NOSIG
  • 251100Z 23011KT 190V250 CAVOK 20/03 Q1024 NOSIG
  • 251030Z 22013KT CAVOK 19/03 Q1024 NOSIG
  • 251000Z 23015KT CAVOK 18/02 Q1024 NOSIG
  • 250930Z 22015KT CAVOK 18/02 Q1024 NOSIG

TAF TAF GMFO
Valide du 25 à 12h jusqu'au 26 à 18h UTC


251100Z 2512/2618 33013KT CAVOK
TEMPO 2521/2608 22007KT



MET'MAP, la Météo Aéronautique d'un coup d'oeil ! - Copyright ORBIFLY Décembre 2007 - Disclaimer

ORBIFLY MET'MAP TEAM :

Programmation & Développement : Alexandra Zaïnal
Sur une idée originale de : Baudouin d'Aumeries
Assistance à la programmation : Marc-Olivier Méhu
Soutien technique & logistique : Manuel Goepfert

Contact : metmap@orbifly.com




SOURCES & CREDITS :

   NOAA